Airfield :







YOU CAN JOIN US ON...

 
LOGIN :

Register | Disclaimer

   EN    FR    IT 

 









Legend :    VFR   Marginal VFR   IFR   Intensive IFR   Very Intensive IFR
Visi :
Ceiling :
>= 8 km
>= 3000ft
5 to 8 km
1000 to 3000 ft
1500m to 5 km
500 to 1000 ft
800 to 1500m
200 to 500 ft
< 800m
< 200 ft
Symbols :   Thunderstorms  Fog  Heavy snow  Heavy precipitations  Wind > 20 kt






- Airport Elevation : 68 ft
- IATA code : YFC


CYFC - Fredericton

CURRENT METAR :
  • 271700Z AUTO 27008KT 9SM OVC040 02/M01 A2941 RMK SLP961

EXPIRED METARs :
  • 271603Z AUTO 26005KT 220V290 9SM FEW018 BKN033 01/00 A2942 RMK SLP965
  • 271550Z AUTO 25005KT 230V310 8SM -SN -UP FEW016 SCT024 OVC031 01/00 A2942 RMK SLP965
  • 271542Z AUTO 27006KT 220V330 8SM -RA SCT018 OVC029 01/00 A2942 RMK SLP966
  • 271530Z AUTO 25005KT 220V280 9SM -RA -UP SCT014 BKN023 OVC030 01/00 A2943 RMK SLP967
  • 271524Z AUTO 25005KT 6SM -UP BR SCT014 BKN020 OVC027 01/00 A2943 RMK SLP967
  • 271509Z AUTO 28004KT 240V320 5SM -RA BR OVC014 01/00 A2943 RMK SLP967
  • 271453Z AUTO 25002KT 9SM -RA OVC016 01/00 A2942 RMK SLP966

TAF TAF CYFC
Valid from the 27 at 12:00 until the 28 at 00:00 UTC


271138Z 2712/2724 22010KT P6SM BKN040
TEMPO 2712/2716 BKN020
FM271600 26012KT P6SM BKN030
TEMPO 2716/2724 5SM -SHRASN BR OVC020
BECMG 2717/2719 29010KT RMK FCST BASED ON AUTO OBS. NXT FCST BY 271800Z



MET'MAP, your aeronautical weather chart ! - Copyright ORBIFLY December 2007 - Disclaimer

ORBIFLY MET'MAP TEAM :

Programming & Development : Alexandra Zaïnal
Concept & original design : Baudouin d'Aumeries
Assistance for programming : Marc-Olivier Méhu
Technical & hardware support : Manuel Goepfert

Contact : metmap@orbifly.com




SOURCES & CREDITS :

   NOAA